sensor_id;sensor_type;location;lat;lon;timestamp;temperature;humidity
5520;DHT22;2782;52.362;10.012;2023-04-28T00:00:52;17.80;67.40
5520;DHT22;2782;52.362;10.012;2023-04-28T00:01:53;17.80;67.60
5520;DHT22;2782;52.362;10.012;2023-04-28T00:02:54;17.80;67.80
5520;DHT22;2782;52.362;10.012;2023-04-28T00:03:55;17.80;67.90
5520;DHT22;2782;52.362;10.012;2023-04-28T00:04:58;17.80;68.00
5520;DHT22;2782;52.362;10.012;2023-04-28T00:05:59;17.80;68.10
5520;DHT22;2782;52.362;10.012;2023-04-28T00:07:02;17.80;68.00
5520;DHT22;2782;52.362;10.012;2023-04-28T00:08:03;17.80;68.20
5520;DHT22;2782;52.362;10.012;2023-04-28T00:09:05;17.80;68.20
5520;DHT22;2782;52.362;10.012;2023-04-28T00:10:06;17.80;68.30
5520;DHT22;2782;52.362;10.012;2023-04-28T00:11:09;17.80;68.30
5520;DHT22;2782;52.362;10.012;2023-04-28T00:12:10;17.80;68.30
5520;DHT22;2782;52.362;10.012;2023-04-28T00:13:11;17.80;68.50
5520;DHT22;2782;52.362;10.012;2023-04-28T00:14:12;17.80;68.40
5520;DHT22;2782;52.362;10.012;2023-04-28T00:15:14;17.80;68.40
5520;DHT22;2782;52.362;10.012;2023-04-28T00:16:16;17.80;68.50
5520;DHT22;2782;52.362;10.012;2023-04-28T00:17:18;17.80;68.60
5520;DHT22;2782;52.362;10.012;2023-04-28T00:18:19;17.80;68.60
5520;DHT22;2782;52.362;10.012;2023-04-28T00:19:20;17.80;68.60
5520;DHT22;2782;52.362;10.012;2023-04-28T00:20:21;17.80;68.80
5520;DHT22;2782;52.362;10.012;2023-04-28T00:21:23;17.80;68.80
5520;DHT22;2782;52.362;10.012;2023-04-28T00:22:24;17.80;68.90
5520;DHT22;2782;52.362;10.012;2023-04-28T00:23:26;17.80;68.80
5520;DHT22;2782;52.362;10.012;2023-04-28T00:24:27;17.80;69.00
5520;DHT22;2782;52.362;10.012;2023-04-28T00:25:29;17.80;68.80
5520;DHT22;2782;52.362;10.012;2023-04-28T00:26:29;17.70;69.00
5520;DHT22;2782;52.362;10.012;2023-04-28T00:27:31;17.80;69.00
5520;DHT22;2782;52.362;10.012;2023-04-28T00:28:32;17.70;69.00
5520;DHT22;2782;52.362;10.012;2023-04-28T00:29:34;17.70;69.30
5520;DHT22;2782;52.362;10.012;2023-04-28T00:30:35;17.70;68.90
5520;DHT22;2782;52.362;10.012;2023-04-28T00:31:37;17.70;68.80
5520;DHT22;2782;52.362;10.012;2023-04-28T00:32:38;17.70;68.90
5520;DHT22;2782;52.362;10.012;2023-04-28T00:33:40;17.70;68.90
5520;DHT22;2782;52.362;10.012;2023-04-28T00:34:41;17.70;69.00
5520;DHT22;2782;52.362;10.012;2023-04-28T00:35:42;17.70;69.20
5520;DHT22;2782;52.362;10.012;2023-04-28T00:36:43;17.80;69.40
5520;DHT22;2782;52.362;10.012;2023-04-28T00:37:44;17.70;69.30
5520;DHT22;2782;52.362;10.012;2023-04-28T00:38:45;17.70;69.30
5520;DHT22;2782;52.362;10.012;2023-04-28T00:39:46;17.70;69.30
5520;DHT22;2782;52.362;10.012;2023-04-28T00:40:47;17.70;69.20
5520;DHT22;2782;52.362;10.012;2023-04-28T00:41:49;17.70;69.40
5520;DHT22;2782;52.362;10.012;2023-04-28T00:42:49;17.70;69.50
5520;DHT22;2782;52.362;10.012;2023-04-28T00:43:51;17.70;69.50
5520;DHT22;2782;52.362;10.012;2023-04-28T00:44:51;17.70;69.30
5520;DHT22;2782;52.362;10.012;2023-04-28T00:45:53;17.70;69.40
5520;DHT22;2782;52.362;10.012;2023-04-28T00:46:56;17.70;69.50
5520;DHT22;2782;52.362;10.012;2023-04-28T00:47:59;17.70;69.70
5520;DHT22;2782;52.362;10.012;2023-04-28T00:49:00;17.70;69.50
5520;DHT22;2782;52.362;10.012;2023-04-28T00:50:04;17.70;69.40
5520;DHT22;2782;52.362;10.012;2023-04-28T00:51:06;17.70;69.80
5520;DHT22;2782;52.362;10.012;2023-04-28T00:52:08;17.70;69.60
5520;DHT22;2782;52.362;10.012;2023-04-28T00:53:10;17.70;69.60
5520;DHT22;2782;52.362;10.012;2023-04-28T00:54:12;17.70;70.00
5520;DHT22;2782;52.362;10.012;2023-04-28T00:55:14;17.70;69.70
5520;DHT22;2782;52.362;10.012;2023-04-28T00:56:16;17.70;70.00
5520;DHT22;2782;52.362;10.012;2023-04-28T00:57:16;17.70;70.60
5520;DHT22;2782;52.362;10.012;2023-04-28T00:58:18;17.70;69.90
5520;DHT22;2782;52.362;10.012;2023-04-28T00:59:19;17.70;69.90
5520;DHT22;2782;52.362;10.012;2023-04-28T01:00:20;17.70;70.20
5520;DHT22;2782;52.362;10.012;2023-04-28T01:01:21;17.70;70.20
5520;DHT22;2782;52.362;10.012;2023-04-28T01:02:24;17.70;70.20
5520;DHT22;2782;52.362;10.012;2023-04-28T01:03:25;17.70;70.20
5520;DHT22;2782;52.362;10.012;2023-04-28T01:04:28;17.70;70.20
5520;DHT22;2782;52.362;10.012;2023-04-28T01:05:29;17.70;70.10
5520;DHT22;2782;52.362;10.012;2023-04-28T01:06:31;17.70;70.20
5520;DHT22;2782;52.362;10.012;2023-04-28T01:07:32;17.70;69.90
5520;DHT22;2782;52.362;10.012;2023-04-28T01:08:35;17.70;70.10
5520;DHT22;2782;52.362;10.012;2023-04-28T01:09:37;17.70;70.20
5520;DHT22;2782;52.362;10.012;2023-04-28T01:10:42;17.70;70.60
5520;DHT22;2782;52.362;10.012;2023-04-28T01:11:43;17.70;70.60
5520;DHT22;2782;52.362;10.012;2023-04-28T01:12:45;17.70;70.80
5520;DHT22;2782;52.362;10.012;2023-04-28T01:13:45;17.70;70.50
5520;DHT22;2782;52.362;10.012;2023-04-28T01:14:47;17.70;70.90
5520;DHT22;2782;52.362;10.012;2023-04-28T01:15:48;17.70;70.60
5520;DHT22;2782;52.362;10.012;2023-04-28T01:16:50;17.70;70.50
5520;DHT22;2782;52.362;10.012;2023-04-28T01:17:54;17.70;70.60
5520;DHT22;2782;52.362;10.012;2023-04-28T01:18:56;17.70;70.60
5520;DHT22;2782;52.362;10.012;2023-04-28T01:19:57;17.70;70.50
5520;DHT22;2782;52.362;10.012;2023-04-28T01:20:59;17.70;70.50
5520;DHT22;2782;52.362;10.012;2023-04-28T01:21:59;17.70;70.50
5520;DHT22;2782;52.362;10.012;2023-04-28T01:23:01;17.70;70.30
5520;DHT22;2782;52.362;10.012;2023-04-28T01:24:05;17.70;70.20
5520;DHT22;2782;52.362;10.012;2023-04-28T01:25:07;17.70;70.20
5520;DHT22;2782;52.362;10.012;2023-04-28T01:26:07;17.70;70.20
5520;DHT22;2782;52.362;10.012;2023-04-28T01:27:09;17.70;70.30
5520;DHT22;2782;52.362;10.012;2023-04-28T01:28:11;17.70;70.20
5520;DHT22;2782;52.362;10.012;2023-04-28T01:29:12;17.70;70.30
5520;DHT22;2782;52.362;10.012;2023-04-28T01:30:13;17.70;70.10
5520;DHT22;2782;52.362;10.012;2023-04-28T01:31:15;17.70;70.10
5520;DHT22;2782;52.362;10.012;2023-04-28T01:32:16;17.70;70.10
5520;DHT22;2782;52.362;10.012;2023-04-28T01:33:17;17.70;70.80
5520;DHT22;2782;52.362;10.012;2023-04-28T01:34:18;17.60;70.00
5520;DHT22;2782;52.362;10.012;2023-04-28T01:35:19;17.70;70.20
5520;DHT22;2782;52.362;10.012;2023-04-28T01:36:20;17.70;70.10
5520;DHT22;2782;52.362;10.012;2023-04-28T01:37:23;17.70;70.20
5520;DHT22;2782;52.362;10.012;2023-04-28T01:38:23;17.70;70.20
5520;DHT22;2782;52.362;10.012;2023-04-28T01:39:26;17.60;69.90
5520;DHT22;2782;52.362;10.012;2023-04-28T01:40:27;17.60;69.90
5520;DHT22;2782;52.362;10.012;2023-04-28T01:41:28;17.70;69.80
5520;DHT22;2782;52.362;10.012;2023-04-28T01:42:29;17.60;69.70
5520;DHT22;2782;52.362;10.012;2023-04-28T01:43:31;17.60;69.80
5520;DHT22;2782;52.362;10.012;2023-04-28T01:44:31;17.60;69.50
5520;DHT22;2782;52.362;10.012;2023-04-28T01:45:33;17.60;69.60
5520;DHT22;2782;52.362;10.012;2023-04-28T01:46:34;17.60;69.80
5520;DHT22;2782;52.362;10.012;2023-04-28T01:47:36;17.60;69.70
5520;DHT22;2782;52.362;10.012;2023-04-28T01:48:36;17.60;69.70
5520;DHT22;2782;52.362;10.012;2023-04-28T01:49:38;17.60;69.60
5520;DHT22;2782;52.362;10.012;2023-04-28T01:50:38;17.60;69.90
5520;DHT22;2782;52.362;10.012;2023-04-28T01:51:40;17.60;69.60
5520;DHT22;2782;52.362;10.012;2023-04-28T01:52:42;17.60;69.70
5520;DHT22;2782;52.362;10.012;2023-04-28T01:53:43;17.60;69.60
5520;DHT22;2782;52.362;10.012;2023-04-28T01:54:45;17.60;69.60
5520;DHT22;2782;52.362;10.012;2023-04-28T01:55:47;17.60;69.50
5520;DHT22;2782;52.362;10.012;2023-04-28T01:56:47;17.60;69.50
5520;DHT22;2782;52.362;10.012;2023-04-28T01:57:49;17.60;69.50
5520;DHT22;2782;52.362;10.012;2023-04-28T01:58:50;17.60;69.50
5520;DHT22;2782;52.362;10.012;2023-04-28T01:59:51;17.60;69.60
5520;DHT22;2782;52.362;10.012;2023-04-28T02:00:52;17.60;69.60
5520;DHT22;2782;52.362;10.012;2023-04-28T02:05:01;17.60;69.40
5520;DHT22;2782;52.362;10.012;2023-04-28T02:06:04;17.60;69.30
5520;DHT22;2782;52.362;10.012;2023-04-28T02:07:05;17.60;69.30
5520;DHT22;2782;52.362;10.012;2023-04-28T02:08:06;17.60;69.60
5520;DHT22;2782;52.362;10.012;2023-04-28T02:09:07;17.60;69.40
5520;DHT22;2782;52.362;10.012;2023-04-28T02:10:10;17.60;69.30
5520;DHT22;2782;52.362;10.012;2023-04-28T02:11:11;17.50;69.30
5520;DHT22;2782;52.362;10.012;2023-04-28T02:12:12;17.60;69.30
5520;DHT22;2782;52.362;10.012;2023-04-28T02:13:13;17.60;69.30
5520;DHT22;2782;52.362;10.012;2023-04-28T02:14:16;17.60;69.10
5520;DHT22;2782;52.362;10.012;2023-04-28T02:15:16;17.50;69.30
5520;DHT22;2782;52.362;10.012;2023-04-28T02:16:18;17.60;69.30
5520;DHT22;2782;52.362;10.012;2023-04-28T02:17:19;17.60;69.30
5520;DHT22;2782;52.362;10.012;2023-04-28T02:18:21;17.60;69.30
5520;DHT22;2782;52.362;10.012;2023-04-28T02:19:21;17.60;69.20
5520;DHT22;2782;52.362;10.012;2023-04-28T02:20:23;17.60;69.20
5520;DHT22;2782;52.362;10.012;2023-04-28T02:21:25;17.60;69.10
5520;DHT22;2782;52.362;10.012;2023-04-28T02:22:27;17.60;69.10
5520;DHT22;2782;52.362;10.012;2023-04-28T02:23:28;17.60;69.10
5520;DHT22;2782;52.362;10.012;2023-04-28T02:24:29;17.60;69.20
5520;DHT22;2782;52.362;10.012;2023-04-28T02:25:31;17.60;69.10
5520;DHT22;2782;52.362;10.012;2023-04-28T02:26:33;17.50;69.10
5520;DHT22;2782;52.362;10.012;2023-04-28T02:27:34;17.60;69.00
5520;DHT22;2782;52.362;10.012;2023-04-28T02:28:36;17.60;69.10
5520;DHT22;2782;52.362;10.012;2023-04-28T02:29:37;17.60;69.10
5520;DHT22;2782;52.362;10.012;2023-04-28T02:30:39;17.60;69.20
5520;DHT22;2782;52.362;10.012;2023-04-28T02:31:39;17.60;68.90
5520;DHT22;2782;52.362;10.012;2023-04-28T02:32:41;17.60;68.90
5520;DHT22;2782;52.362;10.012;2023-04-28T02:33:42;17.50;68.80
5520;DHT22;2782;52.362;10.012;2023-04-28T02:34:43;17.50;68.90
5520;DHT22;2782;52.362;10.012;2023-04-28T02:35:44;17.50;69.10
5520;DHT22;2782;52.362;10.012;2023-04-28T02:36:46;17.50;68.80
5520;DHT22;2782;52.362;10.012;2023-04-28T02:37:47;17.50;68.80
5520;DHT22;2782;52.362;10.012;2023-04-28T02:38:49;17.50;68.90
5520;DHT22;2782;52.362;10.012;2023-04-28T02:39:49;17.50;68.90
5520;DHT22;2782;52.362;10.012;2023-04-28T02:40:57;17.50;69.10
5520;DHT22;2782;52.362;10.012;2023-04-28T02:41:59;17.60;69.10
5520;DHT22;2782;52.362;10.012;2023-04-28T02:43:00;17.50;68.60
5520;DHT22;2782;52.362;10.012;2023-04-28T02:44:01;17.50;68.40
5520;DHT22;2782;52.362;10.012;2023-04-28T02:45:03;17.50;68.50
5520;DHT22;2782;52.362;10.012;2023-04-28T02:46:04;17.50;68.70
5520;DHT22;2782;52.362;10.012;2023-04-28T02:47:06;17.50;68.90
5520;DHT22;2782;52.362;10.012;2023-04-28T02:48:06;17.50;68.90
5520;DHT22;2782;52.362;10.012;2023-04-28T02:49:08;17.50;68.90
5520;DHT22;2782;52.362;10.012;2023-04-28T02:50:09;17.50;68.90
5520;DHT22;2782;52.362;10.012;2023-04-28T02:51:11;17.50;68.90
5520;DHT22;2782;52.362;10.012;2023-04-28T02:52:13;17.50;68.80
5520;DHT22;2782;52.362;10.012;2023-04-28T02:53:15;17.50;68.90
5520;DHT22;2782;52.362;10.012;2023-04-28T02:54:16;17.50;68.80
5520;DHT22;2782;52.362;10.012;2023-04-28T02:55:26;17.50;68.80
5520;DHT22;2782;52.362;10.012;2023-04-28T02:56:28;17.50;68.80
5520;DHT22;2782;52.362;10.012;2023-04-28T02:57:30;17.50;68.80
5520;DHT22;2782;52.362;10.012;2023-04-28T02:58:30;17.50;68.80
5520;DHT22;2782;52.362;10.012;2023-04-28T02:59:32;17.50;68.80
5520;DHT22;2782;52.362;10.012;2023-04-28T03:00:33;17.50;68.80
5520;DHT22;2782;52.362;10.012;2023-04-28T03:01:35;17.50;68.80
5520;DHT22;2782;52.362;10.012;2023-04-28T03:02:35;17.50;68.70
5520;DHT22;2782;52.362;10.012;2023-04-28T03:03:37;17.50;68.60
5520;DHT22;2782;52.362;10.012;2023-04-28T03:04:38;17.50;68.50
5520;DHT22;2782;52.362;10.012;2023-04-28T03:05:39;17.50;68.50
5520;DHT22;2782;52.362;10.012;2023-04-28T03:06:40;17.50;68.70
5520;DHT22;2782;52.362;10.012;2023-04-28T03:07:42;17.50;68.70
5520;DHT22;2782;52.362;10.012;2023-04-28T03:08:43;17.50;68.70
5520;DHT22;2782;52.362;10.012;2023-04-28T03:09:44;17.50;68.60
5520;DHT22;2782;52.362;10.012;2023-04-28T03:10:45;17.50;68.60
5520;DHT22;2782;52.362;10.012;2023-04-28T03:11:48;17.50;68.50
5520;DHT22;2782;52.362;10.012;2023-04-28T03:12:49;17.50;68.50
5520;DHT22;2782;52.362;10.012;2023-04-28T03:13:50;17.50;68.60
5520;DHT22;2782;52.362;10.012;2023-04-28T03:14:51;17.50;68.50
5520;DHT22;2782;52.362;10.012;2023-04-28T03:15:52;17.50;68.50
5520;DHT22;2782;52.362;10.012;2023-04-28T03:16:53;17.50;68.40
5520;DHT22;2782;52.362;10.012;2023-04-28T03:17:55;17.50;68.40
5520;DHT22;2782;52.362;10.012;2023-04-28T03:18:56;17.50;68.40
5520;DHT22;2782;52.362;10.012;2023-04-28T03:19:58;17.50;68.50
5520;DHT22;2782;52.362;10.012;2023-04-28T03:20:58;17.50;68.40
5520;DHT22;2782;52.362;10.012;2023-04-28T03:22:01;17.50;68.40
5520;DHT22;2782;52.362;10.012;2023-04-28T03:23:01;17.50;68.30
5520;DHT22;2782;52.362;10.012;2023-04-28T03:24:03;17.50;68.30
5520;DHT22;2782;52.362;10.012;2023-04-28T03:25:04;17.50;68.40
5520;DHT22;2782;52.362;10.012;2023-04-28T03:26:06;17.50;68.30
5520;DHT22;2782;52.362;10.012;2023-04-28T03:27:09;17.50;68.40
5520;DHT22;2782;52.362;10.012;2023-04-28T03:28:10;17.50;68.40
5520;DHT22;2782;52.362;10.012;2023-04-28T03:29:11;17.50;68.30
5520;DHT22;2782;52.362;10.012;2023-04-28T03:30:13;17.40;68.20
5520;DHT22;2782;52.362;10.012;2023-04-28T03:31:14;17.50;68.30
5520;DHT22;2782;52.362;10.012;2023-04-28T03:32:15;17.50;68.30
5520;DHT22;2782;52.362;10.012;2023-04-28T03:33:16;17.40;68.10
5520;DHT22;2782;52.362;10.012;2023-04-28T03:34:18;17.50;68.30
5520;DHT22;2782;52.362;10.012;2023-04-28T03:35:18;17.40;68.20
5520;DHT22;2782;52.362;10.012;2023-04-28T03:36:20;17.50;68.30
5520;DHT22;2782;52.362;10.012;2023-04-28T03:37:22;17.40;68.10
5520;DHT22;2782;52.362;10.012;2023-04-28T03:38:23;17.40;68.20
5520;DHT22;2782;52.362;10.012;2023-04-28T03:39:24;17.40;68.10
5520;DHT22;2782;52.362;10.012;2023-04-28T03:40:25;17.50;68.20
5520;DHT22;2782;52.362;10.012;2023-04-28T03:41:27;17.40;68.10
5520;DHT22;2782;52.362;10.012;2023-04-28T03:42:29;17.40;68.00
5520;DHT22;2782;52.362;10.012;2023-04-28T03:43:30;17.40;68.10
5520;DHT22;2782;52.362;10.012;2023-04-28T03:44:32;17.40;68.00
5520;DHT22;2782;52.362;10.012;2023-04-28T03:45:34;17.40;68.00
5520;DHT22;2782;52.362;10.012;2023-04-28T03:46:34;17.40;68.00
5520;DHT22;2782;52.362;10.012;2023-04-28T03:47:36;17.40;68.00
5520;DHT22;2782;52.362;10.012;2023-04-28T03:48:37;17.50;68.10
5520;DHT22;2782;52.362;10.012;2023-04-28T03:49:39;17.50;67.80
5520;DHT22;2782;52.362;10.012;2023-04-28T03:50:40;17.50;67.60
5520;DHT22;2782;52.362;10.012;2023-04-28T03:51:42;17.50;67.50
5520;DHT22;2782;52.362;10.012;2023-04-28T03:52:43;17.50;67.60
5520;DHT22;2782;52.362;10.012;2023-04-28T03:53:44;17.50;67.60
5520;DHT22;2782;52.362;10.012;2023-04-28T03:54:45;17.50;67.60
5520;DHT22;2782;52.362;10.012;2023-04-28T03:55:47;17.40;67.30
5520;DHT22;2782;52.362;10.012;2023-04-28T03:56:48;17.40;67.00
5520;DHT22;2782;52.362;10.012;2023-04-28T03:57:51;17.40;67.00
5520;DHT22;2782;52.362;10.012;2023-04-28T03:58:51;17.50;67.10
5520;DHT22;2782;52.362;10.012;2023-04-28T03:59:53;17.50;67.10
5520;DHT22;2782;52.362;10.012;2023-04-28T04:00:54;17.50;67.70
5520;DHT22;2782;52.362;10.012;2023-04-28T04:01:55;17.50;67.00
5520;DHT22;2782;52.362;10.012;2023-04-28T04:02:56;17.50;67.00
5520;DHT22;2782;52.362;10.012;2023-04-28T04:03:58;17.50;67.00
5520;DHT22;2782;52.362;10.012;2023-04-28T04:04:58;17.50;66.90
5520;DHT22;2782;52.362;10.012;2023-04-28T04:06:00;17.50;66.90
5520;DHT22;2782;52.362;10.012;2023-04-28T04:07:01;17.60;67.00
5520;DHT22;2782;52.362;10.012;2023-04-28T04:08:03;17.60;67.00
5520;DHT22;2782;52.362;10.012;2023-04-28T04:09:05;17.60;67.00
5520;DHT22;2782;52.362;10.012;2023-04-28T04:10:08;17.60;67.00
5520;DHT22;2782;52.362;10.012;2023-04-28T04:11:08;17.70;67.20
5520;DHT22;2782;52.362;10.012;2023-04-28T04:12:10;17.70;67.10
5520;DHT22;2782;52.362;10.012;2023-04-28T04:13:12;17.70;67.20
5520;DHT22;2782;52.362;10.012;2023-04-28T04:14:13;17.70;67.10
5520;DHT22;2782;52.362;10.012;2023-04-28T04:15:14;17.70;67.10
5520;DHT22;2782;52.362;10.012;2023-04-28T04:16:16;17.80;67.20
5520;DHT22;2782;52.362;10.012;2023-04-28T04:17:16;17.80;67.10
5520;DHT22;2782;52.362;10.012;2023-04-28T04:18:18;17.80;67.10
5520;DHT22;2782;52.362;10.012;2023-04-28T04:19:18;17.80;67.00
5520;DHT22;2782;52.362;10.012;2023-04-28T04:20:20;17.80;67.10
5520;DHT22;2782;52.362;10.012;2023-04-28T04:21:21;17.90;67.10
5520;DHT22;2782;52.362;10.012;2023-04-28T04:22:22;17.90;67.10
5520;DHT22;2782;52.362;10.012;2023-04-28T04:23:23;17.90;67.10
5520;DHT22;2782;52.362;10.012;2023-04-28T04:24:25;17.90;67.10
5520;DHT22;2782;52.362;10.012;2023-04-28T04:25:26;17.90;67.10
5520;DHT22;2782;52.362;10.012;2023-04-28T04:26:27;17.90;67.10
5520;DHT22;2782;52.362;10.012;2023-04-28T04:27:28;17.90;67.10
5520;DHT22;2782;52.362;10.012;2023-04-28T04:28:31;18.00;67.10
5520;DHT22;2782;52.362;10.012;2023-04-28T04:29:32;18.00;67.10
5520;DHT22;2782;52.362;10.012;2023-04-28T04:30:33;18.00;67.10
5520;DHT22;2782;52.362;10.012;2023-04-28T04:31:34;18.00;67.10
5520;DHT22;2782;52.362;10.012;2023-04-28T04:32:36;18.00;67.10
5520;DHT22;2782;52.362;10.012;2023-04-28T04:33:36;18.10;67.10
5520;DHT22;2782;52.362;10.012;2023-04-28T04:34:38;18.00;65.70
5520;DHT22;2782;52.362;10.012;2023-04-28T04:35:38;18.00;64.30
5520;DHT22;2782;52.362;10.012;2023-04-28T04:36:40;18.00;63.90
5520;DHT22;2782;52.362;10.012;2023-04-28T04:37:41;18.00;63.50
5520;DHT22;2782;52.362;10.012;2023-04-28T04:38:42;18.00;63.30
5520;DHT22;2782;52.362;10.012;2023-04-28T04:39:43;18.00;63.40
5520;DHT22;2782;52.362;10.012;2023-04-28T04:40:44;18.00;63.50
5520;DHT22;2782;52.362;10.012;2023-04-28T04:41:45;18.00;63.40
5520;DHT22;2782;52.362;10.012;2023-04-28T04:42:47;18.00;63.60
5520;DHT22;2782;52.362;10.012;2023-04-28T04:43:48;18.00;63.70
5520;DHT22;2782;52.362;10.012;2023-04-28T04:44:50;18.00;64.50
5520;DHT22;2782;52.362;10.012;2023-04-28T04:45:51;18.00;64.20
5520;DHT22;2782;52.362;10.012;2023-04-28T04:46:53;18.00;64.40
5520;DHT22;2782;52.362;10.012;2023-04-28T04:47:54;18.00;64.50
5520;DHT22;2782;52.362;10.012;2023-04-28T04:48:55;18.00;65.20
5520;DHT22;2782;52.362;10.012;2023-04-28T04:49:56;18.00;65.60
5520;DHT22;2782;52.362;10.012;2023-04-28T04:50:57;18.00;65.90
5520;DHT22;2782;52.362;10.012;2023-04-28T04:51:58;18.00;67.10
5520;DHT22;2782;52.362;10.012;2023-04-28T04:53:00;18.10;67.90
5520;DHT22;2782;52.362;10.012;2023-04-28T04:54:01;18.10;68.50
5520;DHT22;2782;52.362;10.012;2023-04-28T04:55:03;18.10;69.70
5520;DHT22;2782;52.362;10.012;2023-04-28T04:56:04;18.10;71.40
5520;DHT22;2782;52.362;10.012;2023-04-28T04:57:06;18.10;71.70
5520;DHT22;2782;52.362;10.012;2023-04-28T04:58:07;18.20;72.50
5520;DHT22;2782;52.362;10.012;2023-04-28T04:59:10;18.20;73.00
5520;DHT22;2782;52.362;10.012;2023-04-28T05:00:11;18.20;73.80
5520;DHT22;2782;52.362;10.012;2023-04-28T05:01:13;18.30;74.10
5520;DHT22;2782;52.362;10.012;2023-04-28T05:02:14;18.30;74.60
5520;DHT22;2782;52.362;10.012;2023-04-28T05:03:15;18.30;75.00
5520;DHT22;2782;52.362;10.012;2023-04-28T05:04:16;18.30;75.20
5520;DHT22;2782;52.362;10.012;2023-04-28T05:05:18;18.30;75.30
5520;DHT22;2782;52.362;10.012;2023-04-28T05:06:18;18.40;75.70
5520;DHT22;2782;52.362;10.012;2023-04-28T05:07:20;18.40;75.80
5520;DHT22;2782;52.362;10.012;2023-04-28T05:08:21;18.40;74.90
5520;DHT22;2782;52.362;10.012;2023-04-28T05:09:23;18.40;74.90
5520;DHT22;2782;52.362;10.012;2023-04-28T05:10:23;18.40;73.40
5520;DHT22;2782;52.362;10.012;2023-04-28T05:11:25;18.40;71.30
5520;DHT22;2782;52.362;10.012;2023-04-28T05:12:26;18.40;72.60
5520;DHT22;2782;52.362;10.012;2023-04-28T05:13:27;18.40;70.30
5520;DHT22;2782;52.362;10.012;2023-04-28T05:14:29;18.30;69.30
5520;DHT22;2782;52.362;10.012;2023-04-28T05:15:31;18.30;70.70
5520;DHT22;2782;52.362;10.012;2023-04-28T05:16:32;18.30;71.10
5520;DHT22;2782;52.362;10.012;2023-04-28T05:17:33;18.30;71.70
5520;DHT22;2782;52.362;10.012;2023-04-28T05:18:34;18.30;72.90
5520;DHT22;2782;52.362;10.012;2023-04-28T05:19:36;18.30;72.80
5520;DHT22;2782;52.362;10.012;2023-04-28T05:20:36;18.30;69.70
5520;DHT22;2782;52.362;10.012;2023-04-28T05:21:38;18.30;68.90
5520;DHT22;2782;52.362;10.012;2023-04-28T05:22:39;18.30;70.30
5520;DHT22;2782;52.362;10.012;2023-04-28T05:23:40;18.30;70.80
5520;DHT22;2782;52.362;10.012;2023-04-28T05:24:41;18.30;70.10
5520;DHT22;2782;52.362;10.012;2023-04-28T05:25:43;18.30;69.00
5520;DHT22;2782;52.362;10.012;2023-04-28T05:26:43;18.30;66.40
5520;DHT22;2782;52.362;10.012;2023-04-28T05:27:45;18.20;66.90
5520;DHT22;2782;52.362;10.012;2023-04-28T05:28:46;18.20;68.20
5520;DHT22;2782;52.362;10.012;2023-04-28T05:29:49;18.30;69.00
5520;DHT22;2782;52.362;10.012;2023-04-28T05:30:49;18.30;69.00
5520;DHT22;2782;52.362;10.012;2023-04-28T05:31:51;18.20;67.90
5520;DHT22;2782;52.362;10.012;2023-04-28T05:32:52;18.20;68.50
5520;DHT22;2782;52.362;10.012;2023-04-28T05:33:54;18.30;68.80
5520;DHT22;2782;52.362;10.012;2023-04-28T05:34:54;18.20;68.80
5520;DHT22;2782;52.362;10.012;2023-04-28T05:35:56;18.20;68.90
5520;DHT22;2782;52.362;10.012;2023-04-28T05:36:57;18.20;68.90
5520;DHT22;2782;52.362;10.012;2023-04-28T05:37:58;18.20;69.10
5520;DHT22;2782;52.362;10.012;2023-04-28T05:38:59;18.20;69.00
5520;DHT22;2782;52.362;10.012;2023-04-28T05:40:01;18.20;69.30
5520;DHT22;2782;52.362;10.012;2023-04-28T05:41:01;18.20;69.00
5520;DHT22;2782;52.362;10.012;2023-04-28T05:42:03;18.30;69.40
5520;DHT22;2782;52.362;10.012;2023-04-28T05:43:04;18.20;69.60
5520;DHT22;2782;52.362;10.012;2023-04-28T05:44:05;18.20;69.20
5520;DHT22;2782;52.362;10.012;2023-04-28T05:45:09;18.20;69.20
5520;DHT22;2782;52.362;10.012;2023-04-28T05:46:11;18.20;67.50
5520;DHT22;2782;52.362;10.012;2023-04-28T05:47:11;18.20;66.80
5520;DHT22;2782;52.362;10.012;2023-04-28T05:48:13;18.20;66.40
5520;DHT22;2782;52.362;10.012;2023-04-28T05:49:14;18.10;66.10
5520;DHT22;2782;52.362;10.012;2023-04-28T05:50:16;18.10;66.10
5520;DHT22;2782;52.362;10.012;2023-04-28T05:51:16;18.10;67.00
5520;DHT22;2782;52.362;10.012;2023-04-28T05:52:18;18.10;67.10
5520;DHT22;2782;52.362;10.012;2023-04-28T05:53:19;18.10;66.80
5520;DHT22;2782;52.362;10.012;2023-04-28T05:54:20;18.10;66.50
5520;DHT22;2782;52.362;10.012;2023-04-28T05:55:21;18.10;67.60
5520;DHT22;2782;52.362;10.012;2023-04-28T05:56:23;18.10;68.50
5520;DHT22;2782;52.362;10.012;2023-04-28T05:57:23;18.10;67.50
5520;DHT22;2782;52.362;10.012;2023-04-28T05:58:25;18.00;61.00
5520;DHT22;2782;52.362;10.012;2023-04-28T05:59:26;17.90;56.60
5520;DHT22;2782;52.362;10.012;2023-04-28T06:00:29;17.80;54.40
5520;DHT22;2782;52.362;10.012;2023-04-28T06:01:30;17.70;53.10
5520;DHT22;2782;52.362;10.012;2023-04-28T06:02:31;17.60;51.90
5520;DHT22;2782;52.362;10.012;2023-04-28T06:03:32;17.40;50.70
5520;DHT22;2782;52.362;10.012;2023-04-28T06:04:34;17.40;50.50
5520;DHT22;2782;52.362;10.012;2023-04-28T06:05:34;17.30;50.30
5520;DHT22;2782;52.362;10.012;2023-04-28T06:06:36;17.30;51.20
5520;DHT22;2782;52.362;10.012;2023-04-28T06:07:36;17.20;52.20
5520;DHT22;2782;52.362;10.012;2023-04-28T06:08:38;17.30;53.40
5520;DHT22;2782;52.362;10.012;2023-04-28T06:09:39;17.30;54.50
5520;DHT22;2782;52.362;10.012;2023-04-28T06:10:40;17.30;55.90
5520;DHT22;2782;52.362;10.012;2023-04-28T06:11:41;17.30;56.90
5520;DHT22;2782;52.362;10.012;2023-04-28T06:12:43;17.30;57.50
5520;DHT22;2782;52.362;10.012;2023-04-28T06:13:43;17.40;58.40
5520;DHT22;2782;52.362;10.012;2023-04-28T06:14:45;17.40;59.30
5520;DHT22;2782;52.362;10.012;2023-04-28T06:15:47;17.50;59.60
5520;DHT22;2782;52.362;10.012;2023-04-28T06:16:49;17.50;60.00
5520;DHT22;2782;52.362;10.012;2023-04-28T06:17:50;17.50;60.50
5520;DHT22;2782;52.362;10.012;2023-04-28T06:18:51;17.50;60.70
5520;DHT22;2782;52.362;10.012;2023-04-28T06:19:52;17.50;61.00
5520;DHT22;2782;52.362;10.012;2023-04-28T06:20:55;17.50;61.00
5520;DHT22;2782;52.362;10.012;2023-04-28T06:21:55;17.50;61.20
5520;DHT22;2782;52.362;10.012;2023-04-28T06:22:57;17.50;61.40
5520;DHT22;2782;52.362;10.012;2023-04-28T06:23:58;17.50;61.20
5520;DHT22;2782;52.362;10.012;2023-04-28T06:25:00;17.50;61.50
5520;DHT22;2782;52.362;10.012;2023-04-28T06:26:01;17.60;62.50
5520;DHT22;2782;52.362;10.012;2023-04-28T06:27:02;17.60;61.80
5520;DHT22;2782;52.362;10.012;2023-04-28T06:28:04;17.50;61.80
5520;DHT22;2782;52.362;10.012;2023-04-28T06:29:05;17.50;61.90
5520;DHT22;2782;52.362;10.012;2023-04-28T06:30:08;17.60;61.90
5520;DHT22;2782;52.362;10.012;2023-04-28T06:31:10;17.60;62.00
5520;DHT22;2782;52.362;10.012;2023-04-28T06:32:11;17.60;61.90
5520;DHT22;2782;52.362;10.012;2023-04-28T06:33:12;17.60;62.10
5520;DHT22;2782;52.362;10.012;2023-04-28T06:34:13;17.60;62.00
5520;DHT22;2782;52.362;10.012;2023-04-28T06:35:15;17.60;62.80
5520;DHT22;2782;52.362;10.012;2023-04-28T06:36:17;17.60;62.90
5520;DHT22;2782;52.362;10.012;2023-04-28T06:37:17;17.60;62.90